Detall de PIREP

Printer-friendly versionPDF version

[2012/08/21 09:09:00]
Flight IATA:CT2115
Pilot Number:042
Company ICAO:CAT
Aircraft Type:B763/F
PAX:0
Departing Airport: LEXJ
Destination Airport: LEVC
Alternate Airport:LEPA
Online: VATSIM
Route:BLV UM601 GRAUS UN860 SAURA
Flight Level:F340
No Slew and time accel
No pause
Crash detect
Detect pilot in Cockpit between each 30 and 45 minutes
09:09 Zero fuel Weight: 197000 Lbs, Fuel Weight: 161706 Lbs
09:09 VATSIM:LEXJ 210900Z 00000KT 9999 FEW012 BKN028 22/20 Q1019
09:09 VATSIM:LEVC 210900Z 00000KT CAVOK 31/13 Q1018 NOSIG
09:09 VOICE CATALONIAN
09:16 Parking Brakes off
09:20 Take-off
09:20 Take off Weight: 356652 Lbs
09:20 Wind: 000º @ 000 Knots Heading: 290º
09:20 POS N43º 25´ 44´´ W003º 49´ 37´´
09:20 Gear Up: 181 Knots
09:20 Flaps:3 at 181 Knots
09:20 Flaps:2 at 182 Knots
09:21 Flaps:1 at 190 Knots
09:21 Flaps:0 at 202 Knots
09:34 TOC
09:34 Fuel Weight: 152197 Lb
09:35 Wind:254º@042 Knots Heading: 125º Ground Speed: 504 Knots Altitude 34107 ft
09:50 Wind:278º@029 Knots Heading: 154º Ground Speed: 488 Knots Altitude 34163 ft
09:55 TOD
09:55 Fuel Weight: 148269 Lb
10:05 Wind:256º@011 Knots Heading: 198º Ground Speed: 328 Knots Altitude 17158 ft
10:13 Flaps:1 at 226 Knots
10:13 Flaps:2 at 220 Knots
10:14 Flaps:3 at 188 Knots
10:16 Gear Down: 157 Knots
10:16 Flaps:4 at 157 Knots
10:19 Flaps:6 at 162 Knots
10:20 Wind:000º@000 Knots Heading: 295º Ground Speed: 167 Knots Altitude 1131 ft
10:21 TouchDown:Rate -195 ft/min Speed: 150 Knots
10:21 VATSIM:LEVC 211000Z VRB02KT CAVOK 32/15 Q1018 NOSIG
10:21 Land
10:21 Wind:000º@000 Knots
10:21 Heading: 296º
10:21 Flight Duration: 01:01
10:21 Landing Weight: 342196 Lbs
10:21 POS N39º 29´ 29´´ W000º 29´ 14´´
10:22 Parking brakes on
10:22 Block to Block Duration: 01:06
10:22 Final Fuel: 144839 Lbls
10:22 Spent Fuel: 16867 Lbls
10:22 Flight Length: 393 NM
10:22 TOD Land Length: 127 NM

Exportar CSV

Powered by Drupal - Modified by Danger4k